createdAt,value
2023-03-21T00:00:40.783Z,100868.03
2023-03-21T00:03:07.868Z,100809.44
2023-03-21T00:05:34.792Z,100831.00
2023-03-21T00:08:02.657Z,100871.91
2023-03-21T00:10:39.550Z,100879.75
2023-03-21T00:13:08.526Z,100841.75
2023-03-21T00:15:48.488Z,100863.94
2023-03-21T00:18:25.893Z,100868.13
2023-03-21T00:21:39.215Z,100863.88
2023-03-21T00:23:55.137Z,100861.06
2023-03-21T00:26:23.149Z,100850.41
2023-03-21T00:28:50.393Z,100832.63
2023-03-21T00:31:17.517Z,100855.44
2023-03-21T00:33:44.568Z,100818.63
2023-03-21T00:36:11.791Z,100859.09
2023-03-21T00:38:39.267Z,100861.06
2023-03-21T00:41:23.285Z,100853.78
2023-03-21T00:43:55.677Z,100848.97
2023-03-21T00:46:23.498Z,100847.00
2023-03-21T00:48:52.323Z,100772.38
2023-03-21T00:51:26.801Z,100844.19
2023-03-21T00:53:55.056Z,100797.88
2023-03-21T00:56:21.985Z,100822.44
2023-03-21T00:58:49.137Z,100839.63
2023-03-21T01:01:15.928Z,100835.44
2023-03-21T01:03:48.248Z,100844.78
2023-03-21T01:06:19.801Z,100846.53
2023-03-21T01:08:52.642Z,100808.84
2023-03-21T01:11:22.869Z,100828.44
2023-03-21T01:14:07.109Z,100829.41
2023-03-21T01:16:34.864Z,100831.81
2023-03-21T01:19:05.013Z,100851.72
2023-03-21T01:21:33.845Z,100838.56
2023-03-21T01:24:01.919Z,100815.19
2023-03-21T01:26:28.835Z,100854.00
2023-03-21T01:28:55.670Z,100806.28
2023-03-21T01:31:22.681Z,100850.69
2023-03-21T01:33:49.489Z,100804.31
2023-03-21T01:36:21.893Z,100801.78
2023-03-21T01:38:50.021Z,100845.66
2023-03-21T01:41:22.049Z,100733.19
2023-03-21T01:43:49.918Z,100847.63
2023-03-21T01:46:47.781Z,100833.59
2023-03-21T01:49:21.806Z,100834.41
2023-03-21T01:51:52.551Z,100788.34
2023-03-21T01:54:25.411Z,100810.88
2023-03-21T01:56:54.132Z,100815.13
2023-03-21T01:59:24.963Z,100826.81
2023-03-21T02:01:52.289Z,100788.75
2023-03-21T02:04:22.446Z,100813.22
2023-03-21T02:06:54.589Z,100776.56
2023-03-21T02:09:23.094Z,100808.75
2023-03-21T02:11:49.815Z,100811.19
2023-03-21T02:14:28.235Z,100756.94
2023-03-21T02:17:07.634Z,100795.22
2023-03-21T02:20:14.084Z,100786.63
2023-03-21T02:22:43.802Z,100766.97
2023-03-21T02:25:54.963Z,100777.16
2023-03-21T02:28:43.150Z,100771.91
2023-03-21T02:31:20.427Z,100763.91
2023-03-21T02:33:52.079Z,100769.06
2023-03-21T02:36:31.627Z,100766.91
2023-03-21T02:39:01.187Z,100772.28
2023-03-21T02:41:45.915Z,100765.59
2023-03-21T02:44:26.769Z,100765.34
2023-03-21T02:47:05.362Z,100761.22
2023-03-21T02:49:35.762Z,100757.94
2023-03-21T02:52:13.574Z,100769.44
2023-03-21T02:54:48.361Z,100759.13
2023-03-21T02:57:17.756Z,100757.44
2023-03-21T02:59:54.333Z,100751.47
2023-03-21T03:02:26.139Z,100742.19
2023-03-21T03:04:52.959Z,100745.03
2023-03-21T03:07:25.954Z,100733.56
2023-03-21T03:10:18.459Z,100733.91
2023-03-21T03:13:08.371Z,100731.75
2023-03-21T03:15:42.111Z,100702.28
2023-03-21T03:18:13.719Z,100738.31
2023-03-21T03:21:11.287Z,100722.38
2023-03-21T03:23:54.229Z,100715.94
2023-03-21T03:26:31.483Z,100740.88
2023-03-21T03:29:01.435Z,100722.72
2023-03-21T03:31:38.170Z,100733.63
2023-03-21T03:34:13.967Z,100740.66
2023-03-21T03:36:42.389Z,100746.50
2023-03-21T03:39:10.796Z,100745.41
2023-03-21T03:42:10.230Z,100749.53
2023-03-21T03:44:37.207Z,100698.75
2023-03-21T03:47:34.779Z,100722.91
2023-03-21T03:50:10.025Z,100763.91
2023-03-21T03:52:50.127Z,100766.88
2023-03-21T03:55:22.384Z,100771.00
2023-03-21T03:57:49.393Z,100723.47
2023-03-21T04:00:17.332Z,100773.09
2023-03-21T04:02:44.131Z,100738.69
2023-03-21T04:05:10.996Z,100762.81
2023-03-21T04:07:37.735Z,100736.31
2023-03-21T04:10:06.034Z,100756.84
2023-03-21T04:12:32.890Z,100749.56
2023-03-21T04:15:09.509Z,100760.75
2023-03-21T04:17:36.993Z,100755.66
2023-03-21T04:20:12.894Z,100751.16
2023-03-21T04:22:43.621Z,100707.78
2023-03-21T04:25:10.724Z,100759.97
2023-03-21T04:27:37.679Z,100733.75
2023-03-21T04:30:06.194Z,100720.91
2023-03-21T04:32:34.020Z,100745.97
2023-03-21T04:35:01.319Z,100698.38
2023-03-21T04:37:28.210Z,100755.97
2023-03-21T04:39:54.927Z,100742.06
2023-03-21T04:42:21.995Z,100743.84
2023-03-21T04:44:48.884Z,100730.81
2023-03-21T04:47:21.048Z,100742.97
2023-03-21T04:49:50.600Z,100741.13
2023-03-21T04:52:17.361Z,100732.78
2023-03-21T04:54:44.078Z,100748.44
2023-03-21T04:57:10.983Z,100702.41
2023-03-21T04:59:37.822Z,100696.59
2023-03-21T05:02:04.586Z,100741.00
2023-03-21T05:04:31.514Z,100716.22
2023-03-21T05:06:58.871Z,100697.00
2023-03-21T05:09:25.782Z,100735.00
2023-03-21T05:11:52.726Z,100737.31
2023-03-21T05:14:21.735Z,100732.88
2023-03-21T05:16:53.636Z,100690.75
2023-03-21T05:19:22.849Z,100699.94
2023-03-21T05:21:50.080Z,100732.56
2023-03-21T05:24:19.560Z,100728.34
2023-03-21T05:26:52.814Z,100721.41
2023-03-21T05:29:19.849Z,100691.06
2023-03-21T05:31:46.694Z,100741.41
2023-03-21T05:34:13.533Z,100709.03
2023-03-21T05:36:40.535Z,100732.47
2023-03-21T05:39:07.263Z,100736.91
2023-03-21T05:41:34.005Z,100725.16
2023-03-21T05:44:01.082Z,100741.91
2023-03-21T05:46:27.869Z,100718.75
2023-03-21T05:48:54.687Z,100687.81
2023-03-21T05:51:21.478Z,100745.81
2023-03-21T05:53:48.705Z,100738.59
2023-03-21T05:56:15.666Z,100758.41
2023-03-21T05:58:42.497Z,100766.50
2023-03-21T06:01:09.406Z,100718.50
2023-03-21T06:03:36.182Z,100753.63
2023-03-21T06:06:03.815Z,100786.44
2023-03-21T06:08:31.876Z,100657.16
2023-03-21T06:10:58.685Z,100774.66
2023-03-21T06:13:25.663Z,100748.16
2023-03-21T06:15:52.562Z,100756.00
2023-03-21T06:18:19.435Z,100778.84
2023-03-21T06:20:46.296Z,100777.72
2023-03-21T06:23:13.112Z,100770.44
2023-03-21T06:25:39.998Z,100780.19
2023-03-21T06:28:06.990Z,100783.81
2023-03-21T06:30:33.729Z,100780.41
2023-03-21T06:33:00.517Z,100785.44
2023-03-21T06:35:27.398Z,100768.59
2023-03-21T06:37:54.142Z,100772.78
2023-03-21T06:40:21.179Z,100772.22
2023-03-21T06:42:48.228Z,100763.50
2023-03-21T06:45:15.004Z,100765.47
2023-03-21T06:47:41.805Z,100770.25
2023-03-21T06:50:09.655Z,100775.84
2023-03-21T06:52:36.417Z,100748.97
2023-03-21T06:55:03.248Z,100735.91
2023-03-21T06:57:30.099Z,100755.13
2023-03-21T06:59:57.012Z,100735.13
2023-03-21T07:02:23.801Z,100755.28
2023-03-21T07:04:51.327Z,100752.00
2023-03-21T07:07:18.177Z,100735.06
2023-03-21T07:09:44.924Z,100718.13
2023-03-21T07:12:11.823Z,100767.34
2023-03-21T07:14:38.551Z,100764.84
2023-03-21T07:17:05.335Z,100705.97
2023-03-21T07:19:32.146Z,100755.69
2023-03-21T07:21:58.962Z,100731.69
2023-03-21T07:24:26.365Z,100762.94
2023-03-21T07:26:53.630Z,100747.59
2023-03-21T07:29:23.266Z,100759.34
2023-03-21T07:31:50.145Z,100771.88
2023-03-21T07:34:17.984Z,100779.94
2023-03-21T07:36:44.796Z,100779.00
2023-03-21T07:39:11.941Z,100780.91
2023-03-21T07:41:38.926Z,100734.22
2023-03-21T07:46:33.478Z,100735.16
2023-03-21T07:49:00.578Z,100775.84
2023-03-21T07:51:27.484Z,100754.50
2023-03-21T07:53:54.423Z,100765.03
2023-03-21T07:56:22.031Z,100773.94
2023-03-21T07:58:48.787Z,100770.56
2023-03-21T08:01:16.031Z,100776.19
2023-03-21T08:03:43.676Z,100738.50
2023-03-21T08:06:10.651Z,100779.16
2023-03-21T08:08:37.590Z,100777.16
2023-03-21T08:11:04.851Z,100763.69
2023-03-21T08:13:31.778Z,100784.63
2023-03-21T08:15:58.604Z,100778.13
2023-03-21T08:18:26.213Z,100772.75
2023-03-21T08:20:54.294Z,100772.16
2023-03-21T08:23:21.815Z,100776.50
2023-03-21T08:25:53.174Z,100783.63
2023-03-21T08:28:20.268Z,100788.28
2023-03-21T08:30:47.433Z,100786.97
2023-03-21T08:33:14.207Z,100779.06
2023-03-21T08:35:41.551Z,100791.50
2023-03-21T08:38:10.344Z,100789.06
2023-03-21T08:40:37.407Z,100747.16
2023-03-21T08:43:04.242Z,100789.09
2023-03-21T08:45:31.194Z,100796.53
2023-03-21T08:47:58.324Z,100789.63
2023-03-21T08:50:26.608Z,100788.53
2023-03-21T08:52:53.595Z,100788.78
2023-03-21T08:55:20.567Z,100776.13
2023-03-21T08:57:47.327Z,100795.19
2023-03-21T09:00:17.338Z,100785.28
2023-03-21T09:02:47.076Z,100795.00
2023-03-21T09:05:13.744Z,100785.13
2023-03-21T09:07:41.006Z,100787.88
2023-03-21T09:10:25.700Z,100769.22
2023-03-21T09:12:53.827Z,100749.00
2023-03-21T09:15:22.202Z,100780.13
2023-03-21T09:17:53.215Z,100789.81
2023-03-21T09:20:22.861Z,100788.41
2023-03-21T09:22:50.308Z,100795.22
2023-03-21T09:25:17.227Z,100792.25
2023-03-21T09:27:46.010Z,100804.00
2023-03-21T09:30:14.558Z,100750.56
2023-03-21T09:32:42.192Z,100806.91
2023-03-21T09:35:11.547Z,100810.25
2023-03-21T09:37:42.392Z,100799.22
2023-03-21T09:40:31.761Z,100773.13
2023-03-21T09:43:16.423Z,100790.91
2023-03-21T09:45:58.273Z,100799.09
2023-03-21T09:48:57.893Z,100799.81
2023-03-21T09:51:27.421Z,100799.66
2023-03-21T09:53:56.969Z,100805.06
2023-03-21T09:56:26.174Z,100773.53
2023-03-21T09:58:55.068Z,100803.94
2023-03-21T10:01:34.229Z,100806.88
2023-03-21T10:04:03.621Z,100761.31
2023-03-21T10:06:30.981Z,100809.44
2023-03-21T10:09:01.321Z,100804.13
2023-03-21T10:11:42.247Z,100787.19
2023-03-21T10:14:20.713Z,100802.69
2023-03-21T10:16:49.998Z,100776.34
2023-03-21T10:19:18.112Z,100803.59
2023-03-21T10:22:00.293Z,100806.50
2023-03-21T10:24:29.165Z,100830.44
2023-03-21T10:26:56.013Z,100785.22
2023-03-21T10:29:26.426Z,100782.06
2023-03-21T10:31:53.521Z,100787.38
2023-03-21T10:34:50.176Z,100805.94
2023-03-21T10:37:17.023Z,100814.25
2023-03-21T10:39:45.656Z,100784.19
2023-03-21T10:42:29.609Z,100809.91
2023-03-21T10:44:57.511Z,100721.88
2023-03-21T10:47:32.334Z,100768.63
2023-03-21T10:50:08.957Z,100796.25
2023-03-21T10:52:38.232Z,100804.69
2023-03-21T10:55:18.776Z,100769.53
2023-03-21T10:57:46.978Z,100787.00
2023-03-21T11:00:26.507Z,100793.00
2023-03-21T11:02:54.237Z,100767.66
2023-03-21T11:05:42.201Z,100785.91
2023-03-21T11:08:18.576Z,100783.03
2023-03-21T11:10:55.899Z,100780.31
2023-03-21T11:13:27.730Z,100781.47
2023-03-21T11:15:59.843Z,100760.16
2023-03-21T11:18:27.114Z,100777.06
2023-03-21T11:21:04.090Z,100758.28
2023-03-21T11:23:32.256Z,100757.38
2023-03-21T11:25:59.632Z,100757.00
2023-03-21T11:28:33.589Z,100759.91
2023-03-21T11:31:03.853Z,100754.94
2023-03-21T11:33:36.904Z,100784.38
2023-03-21T11:36:05.028Z,100792.91
2023-03-21T11:38:41.332Z,100783.09
2023-03-21T11:41:08.451Z,100788.56
2023-03-21T11:43:36.798Z,100774.00
2023-03-21T11:46:08.507Z,100765.19
2023-03-21T11:48:47.173Z,100731.13
2023-03-21T11:51:21.097Z,100765.56
2023-03-21T11:54:39.027Z,100760.72
2023-03-21T11:57:12.022Z,100762.53
2023-03-21T11:59:47.610Z,100735.38
2023-03-21T12:02:55.249Z,100747.38
2023-03-21T12:05:37.768Z,100742.06
2023-03-21T12:08:07.566Z,100732.97
2023-03-21T12:10:49.035Z,100727.19
2023-03-21T12:13:31.125Z,100732.97
2023-03-21T12:16:16.482Z,100646.16
2023-03-21T12:18:56.200Z,100688.53
2023-03-21T12:21:59.959Z,100722.69
2023-03-21T12:24:31.432Z,100638.28
2023-03-21T12:27:37.968Z,100729.53
2023-03-21T12:30:14.109Z,100688.72
2023-03-21T12:33:05.390Z,100719.41
2023-03-21T12:35:54.349Z,100707.66
2023-03-21T12:38:28.805Z,100713.97
2023-03-21T12:41:17.523Z,100716.50
2023-03-21T12:43:47.787Z,100710.94
2023-03-21T12:46:46.580Z,100705.00
2023-03-21T12:49:27.087Z,100697.44
2023-03-21T12:52:03.860Z,100694.56
2023-03-21T12:54:38.419Z,100692.56
2023-03-21T12:57:16.484Z,100697.16
2023-03-21T13:00:23.198Z,100686.47
2023-03-21T13:02:51.338Z,100671.25
2023-03-21T13:05:40.820Z,100694.69
2023-03-21T13:08:37.472Z,100687.69
2023-03-21T13:11:05.525Z,100686.03
2023-03-21T13:13:39.177Z,100684.44
2023-03-21T13:16:20.778Z,100689.78
2023-03-21T13:19:01.603Z,100653.94
2023-03-21T13:21:40.938Z,100681.94
2023-03-21T13:24:32.559Z,100684.84
2023-03-21T13:27:07.509Z,100676.69
2023-03-21T13:30:09.820Z,100673.59
2023-03-21T13:32:39.099Z,100645.09
2023-03-21T13:35:09.810Z,100664.88
2023-03-21T13:37:59.417Z,100653.72
2023-03-21T13:40:28.585Z,100639.41
2023-03-21T13:42:57.168Z,100661.22
2023-03-21T13:45:29.330Z,100661.97
2023-03-21T13:48:00.461Z,100657.69
2023-03-21T13:50:30.034Z,100639.19
2023-03-21T13:53:15.534Z,100652.44
2023-03-21T13:55:47.073Z,100658.69
2023-03-21T13:58:39.310Z,100659.41
2023-03-21T14:01:26.354Z,100666.16
2023-03-21T14:04:18.634Z,100651.56
2023-03-21T14:06:55.457Z,100639.00
2023-03-21T14:09:43.937Z,100639.25
2023-03-21T14:12:18.244Z,100638.31
2023-03-21T14:14:50.845Z,100593.63
2023-03-21T14:17:23.854Z,100642.91
2023-03-21T14:19:55.027Z,100634.34
2023-03-21T14:22:21.831Z,100651.38
2023-03-21T14:25:01.549Z,100630.91
2023-03-21T14:27:31.010Z,100622.16
2023-03-21T14:29:58.779Z,100603.72
2023-03-21T14:32:26.935Z,100598.09
2023-03-21T14:34:57.884Z,100633.34
2023-03-21T14:37:38.078Z,100532.78
2023-03-21T14:40:09.221Z,100638.00
2023-03-21T14:42:36.605Z,100629.03
2023-03-21T14:45:28.556Z,100630.53
2023-03-21T14:47:58.789Z,100618.53
2023-03-21T14:50:35.958Z,100583.47
2023-03-21T14:53:02.801Z,100593.81
2023-03-21T14:55:29.654Z,100585.66
2023-03-21T14:57:56.653Z,100625.91
2023-03-21T15:00:29.540Z,100563.72
2023-03-21T15:02:58.312Z,100606.44
2023-03-21T15:05:38.013Z,100609.09
2023-03-21T15:08:13.175Z,100577.50
2023-03-21T15:10:39.988Z,100563.41
2023-03-21T15:13:20.266Z,100560.56
2023-03-21T15:15:47.223Z,100593.00
2023-03-21T15:18:16.509Z,100566.19
2023-03-21T15:20:43.540Z,100529.13
2023-03-21T15:23:13.279Z,100581.69
2023-03-21T15:25:40.333Z,100558.56
2023-03-21T15:28:07.465Z,100556.25
2023-03-21T15:30:34.482Z,100571.06
2023-03-21T15:33:09.304Z,100584.34
2023-03-21T15:35:46.166Z,100581.72
2023-03-21T15:38:36.660Z,100537.94
2023-03-21T15:41:21.889Z,100578.38
2023-03-21T15:43:56.513Z,100550.09
2023-03-21T15:46:46.716Z,100569.56
2023-03-21T15:49:13.573Z,100570.19
2023-03-21T15:51:45.341Z,100555.06
2023-03-21T15:54:15.877Z,100563.56
2023-03-21T15:56:46.108Z,100567.06
2023-03-21T15:59:15.484Z,100557.59
2023-03-21T16:01:42.273Z,100566.72
2023-03-21T16:04:10.171Z,100551.09
2023-03-21T16:06:38.393Z,100562.56
2023-03-21T16:09:14.311Z,100566.88
2023-03-21T16:11:41.170Z,100577.56
2023-03-21T16:14:07.928Z,100582.03
2023-03-21T16:16:34.928Z,100587.50
2023-03-21T16:19:02.235Z,100575.06
2023-03-21T16:21:30.724Z,100512.72
2023-03-21T16:23:58.345Z,100562.09
2023-03-21T16:26:30.236Z,100550.41
2023-03-21T16:28:57.812Z,100583.69
2023-03-21T16:31:26.649Z,100532.16
2023-03-21T16:33:53.611Z,100547.09
2023-03-21T16:36:25.004Z,100575.56
2023-03-21T16:38:53.085Z,100568.22
2023-03-21T16:41:20.443Z,100582.88
2023-03-21T16:43:47.173Z,100598.19
2023-03-21T16:46:24.892Z,100548.63
2023-03-21T16:48:56.481Z,100551.28
2023-03-21T16:51:31.749Z,100575.72
2023-03-21T16:53:58.596Z,100585.69
2023-03-21T16:56:27.619Z,100538.16
2023-03-21T16:58:54.768Z,100562.22
2023-03-21T17:01:26.022Z,100573.38
2023-03-21T17:03:53.195Z,100569.88
2023-03-21T17:06:21.873Z,100553.75
2023-03-21T17:08:48.724Z,100549.78
2023-03-21T17:11:17.049Z,100552.41
2023-03-21T17:13:44.319Z,100559.72
2023-03-21T17:16:12.688Z,100569.06
2023-03-21T17:18:39.562Z,100575.03
2023-03-21T17:21:23.096Z,100569.34
2023-03-21T17:23:50.371Z,100550.81
2023-03-21T17:26:27.877Z,100541.88
2023-03-21T17:28:56.864Z,100571.00
2023-03-21T17:31:24.612Z,100540.69
2023-03-21T17:33:51.449Z,100571.53
2023-03-21T17:36:19.136Z,100554.72
2023-03-21T17:38:46.182Z,100549.38
2023-03-21T17:41:14.128Z,100562.34
2023-03-21T17:43:41.040Z,100564.47
2023-03-21T17:46:11.297Z,100576.38
2023-03-21T17:48:38.227Z,100565.84
2023-03-21T17:51:05.354Z,100579.16
2023-03-21T17:53:32.226Z,100574.19
2023-03-21T17:55:59.021Z,100576.63
2023-03-21T17:58:26.378Z,100576.28
2023-03-21T18:00:53.526Z,100583.03
2023-03-21T18:03:20.548Z,100539.03
2023-03-21T18:05:47.392Z,100572.69
2023-03-21T18:08:14.162Z,100603.78
2023-03-21T18:10:41.788Z,100560.25
2023-03-21T18:13:08.863Z,100580.19
2023-03-21T18:15:37.955Z,100603.63
2023-03-21T18:18:05.622Z,100598.44
2023-03-21T18:23:20.362Z,100595.78
2023-03-21T18:25:47.221Z,100601.69
2023-03-21T18:28:14.133Z,100605.25
2023-03-21T18:31:00.986Z,100596.63
2023-03-21T18:33:30.165Z,100599.34
2023-03-21T18:35:59.332Z,100602.00
2023-03-21T18:38:27.900Z,100612.63
2023-03-21T18:40:55.266Z,100617.44
2023-03-21T18:46:09.147Z,100609.44
2023-03-21T18:48:36.757Z,100620.91
2023-03-21T18:51:04.002Z,100582.00
2023-03-21T18:53:30.833Z,100586.16
2023-03-21T18:55:58.035Z,100631.63
2023-03-21T18:58:25.437Z,100630.06
2023-03-21T19:00:53.902Z,100618.56
2023-03-21T19:03:34.317Z,100628.78
2023-03-21T19:06:04.141Z,100623.56
2023-03-21T19:08:31.458Z,100589.50
2023-03-21T19:11:00.251Z,100623.78
2023-03-21T19:13:28.520Z,100598.00
2023-03-21T19:15:56.226Z,100619.81
2023-03-21T19:18:53.370Z,100589.75
2023-03-21T19:21:10.005Z,100610.00
2023-03-21T19:24:08.074Z,100610.63
2023-03-21T19:26:27.103Z,100614.81
2023-03-21T19:28:54.240Z,100620.50
2023-03-21T19:31:21.559Z,100591.19
2023-03-21T19:33:48.638Z,100630.94
2023-03-21T19:36:21.751Z,100636.88
2023-03-21T19:38:50.836Z,100646.97
2023-03-21T19:41:18.479Z,100647.59
2023-03-21T19:43:53.659Z,100644.88
2023-03-21T19:46:25.295Z,100642.56
2023-03-21T19:48:56.337Z,100655.06
2023-03-21T19:51:28.666Z,100632.22
2023-03-21T19:53:59.326Z,100645.50
2023-03-21T19:56:27.658Z,100655.59
2023-03-21T19:58:57.596Z,100640.94
2023-03-21T20:01:24.932Z,100641.53
2023-03-21T20:03:52.814Z,100654.22
2023-03-21T20:06:19.686Z,100655.69
2023-03-21T20:11:33.937Z,100655.47
2023-03-21T20:14:03.275Z,100654.13
2023-03-21T20:16:34.912Z,100656.38
2023-03-21T20:19:02.537Z,100637.94
2023-03-21T20:21:40.148Z,100644.38
2023-03-21T20:24:09.263Z,100593.41
2023-03-21T20:26:37.567Z,100639.63
2023-03-21T20:29:46.962Z,100644.09
2023-03-21T20:31:53.432Z,100652.53
2023-03-21T20:34:21.140Z,100634.50
2023-03-21T20:36:48.478Z,100643.78
2023-03-21T20:39:15.708Z,100599.53
2023-03-21T20:41:42.570Z,100622.81
2023-03-21T20:46:57.039Z,100614.72
2023-03-21T20:49:24.502Z,100579.66
2023-03-21T20:54:38.435Z,100606.59
2023-03-21T20:57:05.289Z,100603.81
2023-03-21T20:59:32.084Z,100576.50
2023-03-21T21:01:59.133Z,100630.84
2023-03-21T21:07:21.241Z,100635.25
2023-03-21T21:09:48.241Z,100637.69
2023-03-21T21:12:15.415Z,100626.38
2023-03-21T21:14:42.479Z,100628.56
2023-03-21T21:17:27.767Z,100626.06
2023-03-21T21:19:57.400Z,100605.22
2023-03-21T21:22:24.170Z,100635.72
2023-03-21T21:24:51.400Z,100629.00
2023-03-21T21:27:18.324Z,100612.81
2023-03-21T21:29:47.890Z,100579.66
2023-03-21T21:32:16.917Z,100624.75
2023-03-21T21:34:43.845Z,100614.13
2023-03-21T21:37:10.762Z,100631.81
2023-03-21T21:39:40.321Z,100617.88
2023-03-21T21:42:07.273Z,100538.22
2023-03-21T21:44:34.037Z,100594.94
2023-03-21T21:47:04.262Z,100621.78
2023-03-21T21:49:31.481Z,100639.03
2023-03-21T21:51:59.940Z,100314.38
2023-03-21T21:54:30.274Z,100646.81
2023-03-21T21:56:58.315Z,100647.84
2023-03-21T21:59:25.067Z,100633.91
2023-03-21T22:01:52.004Z,100593.16
2023-03-21T22:04:19.954Z,100614.63
2023-03-21T22:06:47.805Z,100637.81
2023-03-21T22:09:16.001Z,100640.13
2023-03-21T22:11:42.798Z,100637.31
2023-03-21T22:14:09.536Z,100636.16
2023-03-21T22:16:36.897Z,100624.38
2023-03-21T22:19:03.846Z,100582.19
2023-03-21T22:21:30.742Z,100631.16
2023-03-21T22:23:57.552Z,100611.63
2023-03-21T22:26:24.466Z,100627.41
2023-03-21T22:28:51.297Z,100617.09
2023-03-21T22:31:18.385Z,100636.00
2023-03-21T22:33:45.595Z,100630.38
2023-03-21T22:36:12.415Z,100626.41
2023-03-21T22:38:42.058Z,100627.47
2023-03-21T22:41:08.894Z,100619.69
2023-03-21T22:43:35.689Z,100624.75
2023-03-21T22:46:03.530Z,100625.31
2023-03-21T22:48:31.083Z,100589.34
2023-03-21T22:50:58.647Z,100627.47
2023-03-21T22:53:25.600Z,100609.72
2023-03-21T22:55:52.568Z,100628.09
2023-03-21T22:58:19.344Z,100602.00
2023-03-21T23:00:47.320Z,100627.34
2023-03-21T23:03:16.869Z,100627.97
2023-03-21T23:05:43.943Z,100575.25
2023-03-21T23:08:10.934Z,100623.25
2023-03-21T23:10:39.421Z,100619.91
2023-03-21T23:13:06.457Z,100604.84
2023-03-21T23:15:33.199Z,100499.72
2023-03-21T23:18:00.143Z,100605.63
2023-03-21T23:20:26.958Z,100555.47
2023-03-21T23:22:53.723Z,100575.31
2023-03-21T23:25:20.781Z,100600.25
2023-03-21T23:27:48.048Z,100565.38
2023-03-21T23:30:14.877Z,100601.00
2023-03-21T23:32:42.171Z,100559.44
2023-03-21T23:35:09.552Z,100598.41
2023-03-21T23:37:36.418Z,100595.59
2023-03-21T23:40:06.436Z,100582.88
2023-03-21T23:42:34.420Z,100560.34
2023-03-21T23:45:01.348Z,100560.91
2023-03-21T23:47:28.332Z,100580.63
2023-03-21T23:49:55.211Z,100598.56
2023-03-21T23:52:22.121Z,100606.09
2023-03-21T23:54:49.063Z,100609.75
2023-03-21T23:57:17.403Z,100585.66
2023-03-21T23:59:44.336Z,100593.38
